createdAt,value
2023-05-03T00:02:34.778Z,4.91
2023-05-03T00:05:44.913Z,4.92
2023-05-03T00:08:53.466Z,4.91
2023-05-03T00:12:01.868Z,4.94
2023-05-03T00:15:10.389Z,4.94
2023-05-03T00:18:12.291Z,4.89
2023-05-03T00:21:21.643Z,4.76
2023-05-03T00:24:29.969Z,4.73
2023-05-03T00:27:39.352Z,4.79
2023-05-03T00:30:48.230Z,4.77
2023-05-03T00:33:57.402Z,4.73
2023-05-03T00:37:06.662Z,4.64
2023-05-03T00:40:15.326Z,4.67
2023-05-03T00:43:24.028Z,4.67
2023-05-03T00:46:33.991Z,4.70
2023-05-03T00:49:42.528Z,4.69
2023-05-03T00:52:51.388Z,4.72
2023-05-03T00:55:59.302Z,4.72
2023-05-03T00:59:10.376Z,4.69
2023-05-03T01:02:19.619Z,4.69
2023-05-03T01:05:27.858Z,4.67
2023-05-03T01:08:28.498Z,4.67
2023-05-03T01:11:37.420Z,4.70
2023-05-03T01:14:45.696Z,4.65
2023-05-03T01:17:56.348Z,4.55
2023-05-03T01:21:05.023Z,4.47
2023-05-03T01:24:14.065Z,4.43
2023-05-03T01:27:23.426Z,4.43
2023-05-03T01:30:32.108Z,4.36
2023-05-03T01:33:40.852Z,4.25
2023-05-03T01:36:49.699Z,4.22
2023-05-03T01:39:59.866Z,4.21
2023-05-03T01:43:09.636Z,4.15
2023-05-03T01:46:17.778Z,4.12
2023-05-03T01:49:28.153Z,4.15
2023-05-03T01:52:36.623Z,4.16
2023-05-03T01:55:45.177Z,4.19
2023-05-03T01:58:55.010Z,4.22
2023-05-03T02:02:03.820Z,4.21
2023-05-03T02:05:11.909Z,4.21
2023-05-03T02:08:22.799Z,4.12
2023-05-03T02:11:31.880Z,4.06
2023-05-03T02:14:40.180Z,4.01
2023-05-03T02:17:50.925Z,3.96
2023-05-03T02:20:58.854Z,3.92
2023-05-03T02:24:07.736Z,3.90
2023-05-03T02:27:16.140Z,3.89
2023-05-03T02:30:26.842Z,3.86
2023-05-03T02:33:35.154Z,3.79
2023-05-03T02:36:43.818Z,3.68
2023-05-03T02:39:54.076Z,3.62
2023-05-03T02:43:02.873Z,3.62
2023-05-03T02:46:12.321Z,3.52
2023-05-03T02:49:22.087Z,3.47
2023-05-03T02:52:30.878Z,3.43
2023-05-03T02:55:39.805Z,3.43
2023-05-03T02:58:50.574Z,3.47
2023-05-03T03:01:59.113Z,3.50
2023-05-03T03:05:07.995Z,3.44
2023-05-03T03:08:16.862Z,3.39
2023-05-03T03:11:26.869Z,3.42
2023-05-03T03:14:35.396Z,3.43
2023-05-03T03:17:43.690Z,3.40
2023-05-03T03:20:53.276Z,3.42
2023-05-03T03:24:02.779Z,3.43
2023-05-03T03:27:11.703Z,3.42
2023-05-03T03:30:21.832Z,3.40
2023-05-03T03:33:29.697Z,3.36
2023-05-03T03:36:37.962Z,3.18
2023-05-03T03:39:48.724Z,3.06
2023-05-03T03:42:57.549Z,3.00
2023-05-03T03:46:05.476Z,2.95
2023-05-03T03:49:15.750Z,2.92
2023-05-03T03:52:23.693Z,2.94
2023-05-03T03:55:32.382Z,2.92
2023-05-03T03:58:40.651Z,2.92
2023-05-03T04:01:50.724Z,3.07
2023-05-03T04:04:59.807Z,3.21
2023-05-03T04:08:08.624Z,3.33
2023-05-03T04:11:18.355Z,3.39
2023-05-03T04:14:27.190Z,3.46
2023-05-03T04:17:36.085Z,3.53
2023-05-03T04:20:45.746Z,3.62
2023-05-03T04:23:54.667Z,3.76
2023-05-03T04:27:02.614Z,3.85
2023-05-03T04:30:12.586Z,3.86
2023-05-03T04:33:22.213Z,3.90
2023-05-03T04:36:30.606Z,3.94
2023-05-03T04:39:38.964Z,3.96
2023-05-03T04:42:49.011Z,3.92
2023-05-03T04:45:57.889Z,3.97
2023-05-03T04:49:05.740Z,3.96
2023-05-03T04:52:15.722Z,3.86
2023-05-03T04:55:25.128Z,3.79
2023-05-03T04:58:33.252Z,3.72
2023-05-03T05:01:43.581Z,3.85
2023-05-03T05:04:51.876Z,4.06
2023-05-03T05:08:00.599Z,4.25
2023-05-03T05:11:10.759Z,4.44
2023-05-03T05:14:19.559Z,4.52
2023-05-03T05:17:28.103Z,4.67
2023-05-03T05:20:38.946Z,4.84
2023-05-03T05:23:47.712Z,4.94
2023-05-03T05:26:55.580Z,5.05
2023-05-03T05:30:04.985Z,5.20
2023-05-03T05:33:05.305Z,5.30
2023-05-03T05:36:13.611Z,5.40
2023-05-03T05:39:24.066Z,5.52
2023-05-03T05:42:33.981Z,5.64
2023-05-03T05:45:42.887Z,5.70
2023-05-03T05:48:50.805Z,5.77
2023-05-03T05:52:01.209Z,5.81
2023-05-03T05:55:09.434Z,5.83
2023-05-03T05:58:18.319Z,5.92
2023-05-03T06:01:28.614Z,5.96
2023-05-03T06:04:37.044Z,6.09
2023-05-03T06:07:45.788Z,6.22
2023-05-03T06:10:54.987Z,6.43
2023-05-03T06:14:05.282Z,6.51
2023-05-03T06:17:13.291Z,6.68
2023-05-03T06:20:22.133Z,6.81
2023-05-03T06:23:31.676Z,6.95
2023-05-03T06:27:18.278Z,7.12
2023-05-03T06:30:26.672Z,7.17
2023-05-03T06:33:37.065Z,7.26
2023-05-03T06:36:45.587Z,7.45
2023-05-03T06:39:54.578Z,7.67
2023-05-03T06:43:03.988Z,7.94
2023-05-03T06:46:12.929Z,8.17
2023-05-03T06:49:21.047Z,8.35
2023-05-03T06:52:30.757Z,8.45
2023-05-03T06:55:39.764Z,8.53
2023-05-03T06:58:48.606Z,8.69
2023-05-03T07:01:58.382Z,8.78
2023-05-03T07:05:06.618Z,8.86
2023-05-03T07:08:15.513Z,9.15
2023-05-03T07:11:23.908Z,9.64
2023-05-03T07:14:33.724Z,10.03
2023-05-03T07:17:42.535Z,10.25
2023-05-03T07:20:51.135Z,10.39
2023-05-03T07:24:01.333Z,10.60
2023-05-03T07:27:10.603Z,10.84
2023-05-03T07:30:19.324Z,10.56
2023-05-03T07:33:29.627Z,10.43
2023-05-03T07:36:38.536Z,10.44
2023-05-03T07:39:47.015Z,10.46
2023-05-03T07:42:57.824Z,10.34
2023-05-03T07:46:06.083Z,10.30
2023-05-03T07:49:14.853Z,10.51
2023-05-03T07:52:23.578Z,10.55
2023-05-03T07:55:33.732Z,10.71
2023-05-03T07:58:43.700Z,10.71
2023-05-03T08:01:42.547Z,10.92
2023-05-03T08:04:52.912Z,11.35
2023-05-03T08:08:01.432Z,11.67
2023-05-03T08:11:10.110Z,11.49
2023-05-03T08:14:19.738Z,11.57
2023-05-03T08:17:27.945Z,11.74
2023-05-03T08:20:37.244Z,11.96
2023-05-03T08:23:46.922Z,12.39
2023-05-03T08:26:55.178Z,12.41
2023-05-03T08:30:04.178Z,12.24
2023-05-03T08:33:12.573Z,12.31
2023-05-03T08:36:22.431Z,12.44
2023-05-03T08:39:31.285Z,11.85
2023-05-03T08:42:39.337Z,11.49
2023-05-03T08:45:49.088Z,11.34
2023-05-03T08:48:57.660Z,11.36
2023-05-03T08:52:06.005Z,11.61
2023-05-03T08:55:15.640Z,11.61
2023-05-03T08:58:24.128Z,11.86
2023-05-03T09:01:32.884Z,12.09
2023-05-03T09:04:42.745Z,12.51
2023-05-03T09:07:51.032Z,12.59
2023-05-03T09:10:59.565Z,12.49
2023-05-03T09:14:09.338Z,12.85
2023-05-03T09:17:17.252Z,13.20
2023-05-03T09:20:25.835Z,13.09
2023-05-03T09:23:33.904Z,12.87
2023-05-03T09:26:43.578Z,13.14
2023-05-03T09:29:52.157Z,13.38
2023-05-03T09:33:00.133Z,13.94
2023-05-03T09:36:10.202Z,14.34
2023-05-03T09:39:18.869Z,14.46
2023-05-03T09:42:26.826Z,14.01
2023-05-03T09:45:36.877Z,13.03
2023-05-03T09:48:45.360Z,12.41
2023-05-03T09:51:54.161Z,11.89
2023-05-03T09:55:04.040Z,11.80
2023-05-03T09:58:12.553Z,11.90
2023-05-03T10:01:21.066Z,11.77
2023-05-03T10:04:29.477Z,11.71
2023-05-03T10:07:39.270Z,11.61
2023-05-03T10:10:47.975Z,11.43
2023-05-03T10:13:55.752Z,11.61
2023-05-03T10:17:05.780Z,12.01
2023-05-03T10:20:14.002Z,12.29
2023-05-03T10:23:22.326Z,12.09
2023-05-03T10:26:32.504Z,11.86
2023-05-03T10:29:40.761Z,12.09
2023-05-03T10:32:48.840Z,12.67
2023-05-03T10:35:59.045Z,13.03
2023-05-03T10:39:07.396Z,13.29
2023-05-03T10:42:15.612Z,13.76
2023-05-03T10:45:25.715Z,14.14
2023-05-03T10:48:34.292Z,14.17
2023-05-03T10:51:42.572Z,13.54
2023-05-03T10:54:50.841Z,13.95
2023-05-03T10:58:00.963Z,14.01
2023-05-03T11:01:09.243Z,13.71
2023-05-03T11:04:17.522Z,13.41
2023-05-03T11:07:27.549Z,13.12
2023-05-03T11:10:35.489Z,13.17
2023-05-03T11:13:44.190Z,13.25
2023-05-03T11:16:54.358Z,13.37
2023-05-03T11:20:02.258Z,13.84
2023-05-03T11:23:10.722Z,14.43
2023-05-03T11:26:20.540Z,14.57
2023-05-03T11:29:28.757Z,14.84
2023-05-03T11:32:37.446Z,14.65
2023-05-03T11:35:45.939Z,13.81
2023-05-03T11:38:55.716Z,13.89
2023-05-03T11:42:04.707Z,14.43
2023-05-03T11:45:13.354Z,14.54
2023-05-03T11:48:23.281Z,13.94
2023-05-03T11:51:31.650Z,14.06
2023-05-03T11:54:39.920Z,14.67
2023-05-03T11:57:49.443Z,15.01
2023-05-03T12:00:57.710Z,14.09
2023-05-03T12:04:06.989Z,13.84
2023-05-03T12:07:19.691Z,13.87
2023-05-03T12:10:22.908Z,14.25
2023-05-03T12:13:22.592Z,14.43
2023-05-03T12:16:34.205Z,14.93
2023-05-03T12:19:34.391Z,15.05
2023-05-03T12:22:44.822Z,14.78
2023-05-03T12:25:53.289Z,14.68
2023-05-03T12:29:06.431Z,14.56
2023-05-03T12:32:05.160Z,14.61
2023-05-03T12:35:14.517Z,14.80
2023-05-03T12:38:16.668Z,14.84
2023-05-03T12:41:21.186Z,15.43
2023-05-03T12:44:23.251Z,15.59
2023-05-03T12:47:28.372Z,15.57
2023-05-03T12:50:30.935Z,15.20
2023-05-03T12:53:29.236Z,15.06
2023-05-03T12:56:40.232Z,15.15
2023-05-03T12:59:42.620Z,14.98
2023-05-03T13:03:19.938Z,14.90
2023-05-03T13:05:46.565Z,15.56
2023-05-03T13:09:02.352Z,15.85
2023-05-03T13:12:00.516Z,15.20
2023-05-03T13:15:08.592Z,15.78
2023-05-03T13:18:18.895Z,16.45
2023-05-03T13:21:26.761Z,15.81
2023-05-03T13:24:35.362Z,15.38
2023-05-03T13:27:45.465Z,15.30
2023-05-03T13:30:53.327Z,15.23
2023-05-03T13:34:02.219Z,15.45
2023-05-03T13:37:10.349Z,15.88
2023-05-03T13:40:19.940Z,15.56
2023-05-03T13:43:28.867Z,15.88
2023-05-03T13:46:37.504Z,15.38
2023-05-03T13:49:47.402Z,15.68
2023-05-03T13:52:56.449Z,15.43
2023-05-03T13:56:04.999Z,16.30
2023-05-03T13:59:14.706Z,16.71
2023-05-03T14:02:23.456Z,16.27
2023-05-03T14:05:31.744Z,16.23
2023-05-03T14:08:41.521Z,15.93
2023-05-03T14:11:49.814Z,16.16
2023-05-03T14:14:58.079Z,16.01
2023-05-03T14:18:07.167Z,15.85
2023-05-03T14:21:17.169Z,16.03
2023-05-03T14:24:25.385Z,17.07
2023-05-03T14:27:34.115Z,17.28
2023-05-03T14:30:43.522Z,17.48
2023-05-03T14:33:52.187Z,17.76
2023-05-03T14:37:01.096Z,16.96
2023-05-03T14:40:10.539Z,16.80
2023-05-03T14:43:19.224Z,17.36
2023-05-03T14:46:27.686Z,17.08
2023-05-03T14:49:37.285Z,16.40
2023-05-03T14:52:45.870Z,16.42
2023-05-03T14:55:54.435Z,16.44
2023-05-03T14:59:03.868Z,16.44
2023-05-03T15:02:12.843Z,16.83
2023-05-03T15:05:21.233Z,17.15
2023-05-03T15:08:29.520Z,16.92
2023-05-03T15:11:39.657Z,16.55
2023-05-03T15:14:47.853Z,16.38
2023-05-03T15:17:56.197Z,16.40
2023-05-03T15:21:05.458Z,16.42
2023-05-03T15:24:14.124Z,16.44
2023-05-03T15:27:22.668Z,16.34
2023-05-03T15:30:32.910Z,16.42
2023-05-03T15:33:41.519Z,16.33
2023-05-03T15:36:49.879Z,16.25
2023-05-03T15:39:59.361Z,16.49
2023-05-03T15:43:08.772Z,16.99
2023-05-03T15:46:17.753Z,17.07
2023-05-03T15:49:25.639Z,17.04
2023-05-03T15:52:36.124Z,16.90
2023-05-03T15:55:44.570Z,16.65
2023-05-03T15:58:52.666Z,16.74
2023-05-03T16:02:02.799Z,16.78
2023-05-03T16:05:11.302Z,16.96
2023-05-03T16:08:19.638Z,16.63
2023-05-03T16:11:29.602Z,16.34
2023-05-03T16:14:38.113Z,16.25
2023-05-03T16:17:46.441Z,16.18
2023-05-03T16:20:56.812Z,16.12
2023-05-03T16:24:06.140Z,16.15
2023-05-03T16:27:14.795Z,16.09
2023-05-03T16:30:25.170Z,15.97
2023-05-03T16:33:33.959Z,16.23
2023-05-03T16:36:41.892Z,16.15
2023-05-03T16:39:50.084Z,15.94
2023-05-03T16:42:50.130Z,15.81
2023-05-03T16:45:58.828Z,15.93
2023-05-03T16:49:07.042Z,16.15
2023-05-03T16:52:17.388Z,16.06
2023-05-03T16:55:25.466Z,15.68
2023-05-03T16:58:34.171Z,15.49
2023-05-03T17:01:44.412Z,15.39
2023-05-03T17:04:52.725Z,15.30
2023-05-03T17:08:01.591Z,15.20
2023-05-03T17:11:11.306Z,15.13
2023-05-03T17:14:20.084Z,15.09
2023-05-03T17:17:28.554Z,15.09
2023-05-03T17:20:36.940Z,15.06
2023-05-03T17:23:46.663Z,14.88
2023-05-03T17:26:54.528Z,14.74
2023-05-03T17:30:03.403Z,14.62
2023-05-03T17:33:04.389Z,14.56
2023-05-03T17:36:12.727Z,14.54
2023-05-03T17:39:22.098Z,14.53
2023-05-03T17:42:31.500Z,14.43
2023-05-03T17:45:40.605Z,14.37
2023-05-03T17:48:49.824Z,14.25
2023-05-03T17:51:59.753Z,14.09
2023-05-03T17:55:08.338Z,13.98
2023-05-03T17:58:17.195Z,13.95
2023-05-03T18:01:25.934Z,13.87
2023-05-03T18:04:35.337Z,13.76
2023-05-03T18:07:44.473Z,13.63
2023-05-03T18:10:53.364Z,13.54
2023-05-03T18:14:02.919Z,13.43
2023-05-03T18:17:11.926Z,13.32
2023-05-03T18:20:19.926Z,13.21
2023-05-03T18:23:30.943Z,13.06
2023-05-03T18:26:39.775Z,12.92
2023-05-03T18:29:48.192Z,12.78
2023-05-03T18:32:58.730Z,12.69
2023-05-03T18:36:07.052Z,12.57
2023-05-03T18:39:15.291Z,12.45
2023-05-03T18:42:24.186Z,12.33
2023-05-03T18:45:34.404Z,12.15
2023-05-03T18:48:42.759Z,12.05
2023-05-03T18:51:51.701Z,11.86
2023-05-03T18:55:01.996Z,11.65
2023-05-03T18:58:09.938Z,11.47
2023-05-03T19:01:19.026Z,11.35
2023-05-03T19:04:19.238Z,11.34
2023-05-03T19:07:27.878Z,11.19
2023-05-03T19:10:36.278Z,11.01
2023-05-03T19:13:46.644Z,10.96
2023-05-03T19:16:54.773Z,10.78
2023-05-03T19:20:03.708Z,10.65
2023-05-03T19:23:12.174Z,10.51
2023-05-03T19:26:21.647Z,10.40
2023-05-03T19:29:30.564Z,10.25
2023-05-03T19:32:39.683Z,10.17
2023-05-03T19:35:49.539Z,10.04
2023-05-03T19:38:58.292Z,10.09
2023-05-03T19:42:06.606Z,10.06
2023-05-03T19:45:16.950Z,9.94
2023-05-03T19:48:25.033Z,9.78
2023-05-03T19:51:33.518Z,9.67
2023-05-03T19:54:44.064Z,9.58
2023-05-03T19:57:52.274Z,9.52
2023-05-03T20:01:01.334Z,9.45
2023-05-03T20:04:11.463Z,9.34
2023-05-03T20:07:19.937Z,9.27
2023-05-03T20:10:28.586Z,9.27
2023-05-03T20:13:37.143Z,9.18
2023-05-03T20:16:47.429Z,9.20
2023-05-03T20:19:56.477Z,9.20
2023-05-03T20:23:04.703Z,9.28
2023-05-03T20:26:14.785Z,9.20
2023-05-03T20:29:23.237Z,9.21
2023-05-03T20:32:31.792Z,9.06
2023-05-03T20:35:41.992Z,8.97
2023-05-03T20:38:50.672Z,8.88
2023-05-03T20:41:59.296Z,8.75
2023-05-03T20:45:08.887Z,8.63
2023-05-03T20:48:17.718Z,8.57
2023-05-03T20:51:26.861Z,8.54
2023-05-03T20:54:36.156Z,8.58
2023-05-03T20:57:46.426Z,8.58
2023-05-03T21:00:57.560Z,8.58
2023-05-03T21:03:55.931Z,8.55
2023-05-03T21:07:06.209Z,8.42
2023-05-03T21:10:14.231Z,8.33
2023-05-03T21:13:23.327Z,8.25
2023-05-03T21:16:33.479Z,8.26
2023-05-03T21:19:42.527Z,8.07
2023-05-03T21:22:50.490Z,7.90
2023-05-03T21:25:54.425Z,7.79
2023-05-03T21:28:54.437Z,7.74
2023-05-03T21:32:03.408Z,7.82
2023-05-03T21:35:12.063Z,7.84
2023-05-03T21:38:21.640Z,7.77
2023-05-03T21:41:30.016Z,7.72
2023-05-03T21:44:38.977Z,7.67
2023-05-03T21:47:48.841Z,7.53
2023-05-03T21:50:57.071Z,7.38
2023-05-03T21:54:05.785Z,7.27
2023-05-03T21:57:15.823Z,7.20
2023-05-03T22:00:25.188Z,7.15
2023-05-03T22:03:33.905Z,7.08
2023-05-03T22:06:43.804Z,7.04
2023-05-03T22:09:52.745Z,7.09
2023-05-03T22:13:01.589Z,7.13
2023-05-03T22:16:11.781Z,7.09
2023-05-03T22:19:20.756Z,6.98
2023-05-03T22:22:29.198Z,6.91
2023-05-03T22:25:38.377Z,6.81
2023-05-03T22:28:39.122Z,6.69
2023-05-03T22:31:48.683Z,6.65
2023-05-03T22:34:57.213Z,6.61
2023-05-03T22:37:56.911Z,6.58
2023-05-03T22:41:05.986Z,6.53
2023-05-03T22:44:14.440Z,6.54
2023-05-03T22:47:25.315Z,6.44
2023-05-03T22:50:34.373Z,6.33
2023-05-03T22:53:42.998Z,6.28
2023-05-03T22:56:53.338Z,6.21
2023-05-03T23:00:02.270Z,6.19
2023-05-03T23:03:10.825Z,6.22
2023-05-03T23:06:20.125Z,6.21
2023-05-03T23:09:29.926Z,6.21
2023-05-03T23:12:38.864Z,6.30
2023-05-03T23:15:47.670Z,6.33
2023-05-03T23:18:58.124Z,6.46
2023-05-03T23:22:06.532Z,6.56
2023-05-03T23:25:14.839Z,6.61
2023-05-03T23:28:25.515Z,6.68
2023-05-03T23:31:34.936Z,6.66
2023-05-03T23:34:44.851Z,6.65
2023-05-03T23:37:55.523Z,6.58
2023-05-03T23:41:03.893Z,6.54
2023-05-03T23:44:12.685Z,6.58
2023-05-03T23:47:23.224Z,6.54
2023-05-03T23:50:31.732Z,6.54
2023-05-03T23:53:40.737Z,6.54
2023-05-03T23:56:49.120Z,6.50
2023-05-03T23:59:59.488Z,6.51
